Time;durP1;ratioP1;P1;durP2;ratioP2;P2;SDS_P1;SDS_P2;PMS_P1;PMS_P2;Temp;Humidity;BMP_temperature;BMP_pressure;BME280_temperature;BME280_humidity;BME280_pressure;Samples;Min_cycle;Max_cycle;Signal;HPM_P1;HPM_P2
2022/03/12 00:04:45;;;;;;;10.75;5.40;;;10.30;55.50;;;;;;10488858;28;20024;-64
2022/03/12 00:09:46;;;;;;;8.13;5.22;;;10.30;55.60;;;;;;10480148;28;20656;-62
2022/03/12 00:14:48;;;;;;;12.27;5.90;;;10.30;55.60;;;;;;10481214;28;20021;-62
2022/03/12 00:19:49;;;;;;;10.07;5.13;;;10.30;55.70;;;;;;10482955;28;20037;-63
2022/03/12 00:24:50;;;;;;;11.38;5.10;;;10.30;55.80;;;;;;10479114;28;20028;-63
2022/03/12 00:29:52;;;;;;;8.68;4.85;;;10.30;56.00;;;;;;10482505;28;20178;-63
2022/03/12 00:34:53;;;;;;;9.98;5.47;;;10.30;56.10;;;;;;10482913;28;20028;-63
2022/03/12 00:39:54;;;;;;;9.50;5.25;;;10.20;56.10;;;;;;10487306;28;20047;-62
2022/03/12 00:44:54;;;;;;;10.27;5.32;;;10.20;56.20;;;;;;10478163;28;20052;-64
2022/03/12 00:49:55;;;;;;;11.13;5.80;;;10.20;56.20;;;;;;10480208;28;20028;-62
2022/03/12 00:54:56;;;;;;;8.60;5.13;;;10.20;56.10;;;;;;10478933;28;20035;-63
2022/03/12 00:59:57;;;;;;;8.73;4.65;;;10.20;56.30;;;;;;10479640;28;20441;-65
2022/03/12 01:04:57;;;;;;;8.73;4.53;;;10.20;56.20;;;;;;10478434;28;20254;-63
2022/03/12 01:09:59;;;;;;;12.02;5.80;;;10.30;56.40;;;;;;10472072;28;20025;-65
2022/03/12 01:14:59;;;;;;;8.30;5.32;;;10.20;56.40;;;;;;10473899;28;20025;-65
2022/03/12 01:20:02;;;;;;;8.02;4.68;;;10.20;56.40;;;;;;10479840;28;20041;-64
2022/03/12 01:25:07;;;;;;;11.27;5.47;;;10.10;56.30;;;;;;10481939;28;20490;-63
2022/03/12 01:30:08;;;;;;;8.70;5.43;;;10.10;56.30;;;;;;10475574;28;20025;-65
2022/03/12 01:35:09;;;;;;;8.90;5.07;;;10.10;56.30;;;;;;10485719;28;20024;-64
2022/03/12 01:40:11;;;;;;;9.82;5.18;;;10.10;56.30;;;;;;10484914;28;20399;-63
2022/03/12 01:45:13;;;;;;;9.10;4.72;;;10.00;56.10;;;;;;10481089;28;20151;-65
2022/03/12 01:50:20;;;;;;;8.73;5.25;;;10.00;56.00;;;;;;10478916;28;20036;-65
2022/03/12 01:55:22;;;;;;;12.57;5.32;;;10.00;56.00;;;;;;10485291;28;20048;-64
2022/03/12 02:00:25;;;;;;;9.93;5.18;;;10.00;56.10;;;;;;10478712;28;20526;-65
2022/03/12 02:05:27;;;;;;;8.55;5.43;;;10.00;56.30;;;;;;10473477;28;20025;-64
2022/03/12 02:10:28;;;;;;;8.88;5.68;;;10.00;56.20;;;;;;10482731;28;20411;-64
2022/03/12 02:15:29;;;;;;;9.05;5.10;;;10.00;56.00;;;;;;10484302;28;20349;-65
2022/03/12 02:20:30;;;;;;;9.07;4.80;;;9.90;55.90;;;;;;10477850;28;20032;-65
2022/03/12 02:25:32;;;;;;;8.52;5.43;;;9.90;56.00;;;;;;10480463;28;20027;-65
2022/03/12 02:30:47;;;;;;;10.23;5.10;;;9.90;56.00;;;;;;10481949;28;20192;-65
2022/03/12 02:35:48;;;;;;;10.23;5.50;;;9.90;56.20;;;;;;10477192;28;20111;-62
2022/03/12 02:40:49;;;;;;;10.15;5.43;;;9.90;56.80;;;;;;10484109;28;20389;-64
2022/03/12 02:45:51;;;;;;;13.10;5.32;;;9.90;56.20;;;;;;10478845;28;20025;-65
2022/03/12 02:50:53;;;;;;;11.15;5.22;;;9.90;56.30;;;;;;10473866;28;20025;-64
2022/03/12 02:55:54;;;;;;;10.02;5.75;;;9.80;56.20;;;;;;10478600;28;20028;-63
2022/03/12 03:00:56;;;;;;;11.10;5.80;;;9.90;56.30;;;;;;10464846;28;20048;-63
2022/03/12 03:05:57;;;;;;;8.35;5.15;;;9.80;56.30;;;;;;10469168;28;20030;-65
2022/03/12 03:10:59;;;;;;;10.80;5.13;;;9.80;56.30;;;;;;10479531;28;20494;-64
2022/03/12 03:16:02;;;;;;;8.20;5.22;;;9.80;56.40;;;;;;10484204;28;20471;-64
2022/03/12 03:21:13;;;;;;;9.57;5.25;;;9.90;56.70;;;;;;10480937;28;20040;-65
2022/03/12 03:26:19;;;;;;;9.35;5.30;;;9.80;57.10;;;;;;10486986;28;20028;-65
2022/03/12 03:31:19;;;;;;;8.95;5.00;;;9.80;57.30;;;;;;10489029;28;20094;-63
2022/03/12 03:36:20;;;;;;;9.23;4.97;;;9.80;57.60;;;;;;10492185;28;20025;-66
2022/03/12 03:41:21;;;;;;;9.57;5.25;;;9.80;57.60;;;;;;10491273;28;20051;-63
2022/03/12 03:46:23;;;;;;;9.88;4.95;;;9.80;57.80;;;;;;10487075;28;20048;-64
2022/03/12 03:51:24;;;;;;;7.97;5.10;;;9.80;57.90;;;;;;10485529;28;20037;-64
2022/03/12 03:56:25;;;;;;;9.00;5.40;;;9.80;58.10;;;;;;10490317;28;20036;-64
2022/03/12 04:01:26;;;;;;;9.50;4.82;;;9.80;58.20;;;;;;10463883;28;20036;-63
2022/03/12 04:06:27;;;;;;;9.43;5.40;;;9.80;58.30;;;;;;10482172;28;20059;-63
2022/03/12 04:11:28;;;;;;;9.82;5.25;;;9.80;58.50;;;;;;10473164;28;20127;-64
2022/03/12 04:16:31;;;;;;;9.57;5.43;;;9.80;58.50;;;;;;10490623;28;20033;-63
2022/03/12 04:21:32;;;;;;;10.50;5.40;;;9.80;58.50;;;;;;10478877;28;20086;-63
2022/03/12 04:26:35;;;;;;;9.40;5.68;;;9.80;58.10;;;;;;10489406;28;20027;-64
2022/03/12 04:31:36;;;;;;;11.68;5.78;;;9.80;58.60;;;;;;10487554;28;20102;-64
2022/03/12 04:36:37;;;;;;;8.15;4.78;;;9.80;58.60;;;;;;10489450;28;20430;-62
2022/03/12 04:41:39;;;;;;;11.07;5.68;;;9.80;59.30;;;;;;10488283;28;20449;-65
2022/03/12 04:46:40;;;;;;;9.68;5.50;;;9.80;58.80;;;;;;10484467;28;20033;-59
2022/03/12 04:51:42;;;;;;;9.95;5.45;;;9.80;59.10;;;;;;10484672;28;20036;-61
2022/03/12 04:56:44;;;;;;;10.43;5.90;;;9.70;59.40;;;;;;10480711;28;20043;-60
2022/03/12 05:01:46;;;;;;;11.63;5.47;;;9.70;59.40;;;;;;10483837;28;20078;-61
2022/03/12 05:06:46;;;;;;;9.65;5.28;;;9.70;59.40;;;;;;10479750;28;20398;-65
2022/03/12 05:11:49;;;;;;;9.27;5.43;;;9.70;59.50;;;;;;10487715;28;20021;-63
2022/03/12 05:16:50;;;;;;;10.73;5.90;;;9.70;59.70;;;;;;10486583;28;20043;-61
2022/03/12 05:21:51;;;;;;;10.38;5.75;;;9.70;59.70;;;;;;10476024;28;20040;-65
2022/03/12 05:26:52;;;;;;;11.93;5.63;;;9.70;59.70;;;;;;10486569;28;20021;-61
2022/03/12 05:31:53;;;;;;;10.20;5.72;;;9.70;59.70;;;;;;10483256;28;20043;-65
2022/03/12 05:36:53;;;;;;;11.75;5.80;;;9.70;59.70;;;;;;10486370;28;20070;-64
2022/03/12 05:41:55;;;;;;;19.15;5.93;;;9.70;59.90;;;;;;10485512;28;20151;-63
2022/03/12 05:46:56;;;;;;;11.38;6.00;;;9.70;60.00;;;;;;10481434;28;20154;-63
2022/03/12 05:51:58;;;;;;;9.65;5.15;;;9.70;60.40;;;;;;10480308;28;20143;-63
2022/03/12 05:57:00;;;;;;;11.93;5.30;;;9.70;60.40;;;;;;10486246;28;20033;-64
2022/03/12 06:02:01;;;;;;;11.00;5.53;;;9.60;60.40;;;;;;10479907;28;20041;-62
2022/03/12 06:07:02;;;;;;;11.13;5.60;;;9.60;60.50;;;;;;10479198;28;20032;-60
2022/03/12 06:12:03;;;;;;;11.15;5.57;;;9.60;60.60;;;;;;10486473;28;20025;-62
2022/03/12 06:17:04;;;;;;;12.85;5.88;;;9.70;60.50;;;;;;10485304;28;20036;-64
2022/03/12 06:22:05;;;;;;;12.57;5.43;;;9.70;60.60;;;;;;10454404;28;20067;-61
2022/03/12 06:27:06;;;;;;;10.73;5.30;;;9.70;60.60;;;;;;10486289;28;20028;-61
2022/03/12 06:32:08;;;;;;;12.32;5.70;;;9.60;60.80;;;;;;10474611;28;20033;-63
2022/03/12 06:37:08;;;;;;;10.55;5.32;;;9.60;60.90;;;;;;10480169;28;20024;-60
2022/03/12 06:42:09;;;;;;;14.38;6.47;;;9.60;60.90;;;;;;10484073;28;20052;-63
2022/03/12 06:47:10;;;;;;;11.65;5.80;;;9.60;61.10;;;;;;10486200;28;20123;-61
2022/03/12 06:52:11;;;;;;;10.30;5.68;;;9.60;60.90;;;;;;10488280;28;20371;-63
2022/03/12 06:57:12;;;;;;;13.30;5.88;;;9.60;60.60;;;;;;10493977;28;20150;-61
2022/03/12 07:02:13;;;;;;;11.25;5.72;;;9.70;60.60;;;;;;10483986;28;20037;-64
2022/03/12 07:07:14;;;;;;;12.07;5.68;;;9.70;60.60;;;;;;10482058;28;20028;-61
2022/03/12 07:12:15;;;;;;;11.40;5.60;;;9.60;60.50;;;;;;10479815;28;20040;-61
2022/03/12 07:17:16;;;;;;;12.75;5.93;;;9.70;60.80;;;;;;10439497;28;20031;-66
2022/03/12 07:22:17;;;;;;;10.98;5.47;;;9.70;60.50;;;;;;10465253;28;20040;-64
2022/03/12 07:27:18;;;;;;;10.77;5.57;;;9.80;60.60;;;;;;10492529;28;20437;-65
2022/03/12 07:32:20;;;;;;;9.93;6.15;;;9.80;60.60;;;;;;10486954;28;20028;-64
2022/03/12 07:37:21;;;;;;;11.48;6.22;;;9.80;60.60;;;;;;10473776;28;20588;-65
2022/03/12 07:42:22;;;;;;;12.30;6.70;;;9.80;60.70;;;;;;10489903;28;20058;-64
2022/03/12 07:47:23;;;;;;;11.45;6.45;;;9.90;60.40;;;;;;10463517;28;20483;-65
2022/03/12 07:52:23;;;;;;;11.73;5.78;;;9.90;60.40;;;;;;10465252;28;20043;-63
2022/03/12 07:57:28;;;;;;;12.02;6.93;;;10.00;60.30;;;;;;10450197;28;20021;-65
2022/03/12 08:02:28;;;;;;;13.40;6.78;;;10.10;60.30;;;;;;10460755;28;20102;-64
2022/03/12 08:07:30;;;;;;;14.00;6.72;;;10.10;60.30;;;;;;10469458;28;20016;-64
2022/03/12 08:12:31;;;;;;;15.05;6.93;;;10.20;60.40;;;;;;10481837;28;20032;-64
2022/03/12 08:17:32;;;;;;;13.20;7.18;;;10.20;60.40;;;;;;10478400;28;20020;-65
2022/03/12 08:22:38;;;;;;;12.63;7.05;;;10.30;60.40;;;;;;10475118;28;20479;-65
2022/03/12 08:27:40;;;;;;;11.20;6.20;;;10.30;60.50;;;;;;10474433;28;20073;-65
2022/03/12 08:32:42;;;;;;;13.85;7.13;;;10.40;61.30;;;;;;10468920;28;20043;-65
2022/03/12 08:37:43;;;;;;;12.43;6.95;;;10.40;60.80;;;;;;10488192;28;20510;-64
2022/03/12 08:42:44;;;;;;;13.55;6.43;;;10.50;61.00;;;;;;10485068;28;20047;-66
2022/03/12 08:47:45;;;;;;;13.57;6.70;;;10.50;61.10;;;;;;10482736;28;20476;-67
2022/03/12 08:52:47;;;;;;;11.85;6.50;;;10.60;62.40;;;;;;10476340;28;20126;-62
2022/03/12 08:57:47;;;;;;;17.15;6.78;;;10.70;61.90;;;;;;10449993;28;20038;-68
2022/03/12 09:02:48;;;;;;;14.98;6.70;;;10.80;62.60;;;;;;10484461;28;20436;-64
2022/03/12 09:07:51;;;;;;;11.38;6.32;;;10.80;62.30;;;;;;10474117;28;20013;-69
2022/03/12 09:12:53;;;;;;;12.27;6.18;;;10.80;62.40;;;;;;10495459;28;20402;-68
2022/03/12 09:17:54;;;;;;;13.77;6.78;;;11.00;62.70;;;;;;10483865;28;20017;-63
2022/03/12 09:22:54;;;;;;;13.07;6.93;;;10.90;63.10;;;;;;10470168;28;20056;-65
2022/03/12 09:27:55;;;;;;;9.88;5.85;;;10.90;63.20;;;;;;10487152;28;20021;-67
2022/03/12 09:32:56;;;;;;;11.30;6.00;;;11.00;63.40;;;;;;10477772;28;20036;-66
2022/03/12 09:37:57;;;;;;;11.35;6.05;;;11.10;63.80;;;;;;10477068;28;20029;-65
2022/03/12 09:42:58;;;;;;;11.43;5.90;;;11.10;64.10;;;;;;10481236;28;20098;-68
2022/03/12 09:47:59;;;;;;;10.93;5.85;;;11.20;64.60;;;;;;10479323;28;20491;-71
2022/03/12 09:53:00;;;;;;;10.00;5.45;;;11.20;65.70;;;;;;10475853;28;20078;-68
2022/03/12 09:58:01;;;;;;;10.30;5.47;;;11.30;66.70;;;;;;10479518;28;20568;-70
2022/03/12 10:03:04;;;;;;;10.68;4.97;;;11.40;67.00;;;;;;10466186;28;20489;-70
2022/03/12 10:08:05;;;;;;;9.43;5.53;;;11.50;67.40;;;;;;10469488;28;20109;-68
2022/03/12 10:13:06;;;;;;;8.07;4.82;;;11.50;67.60;;;;;;10475895;28;20025;-67
2022/03/12 10:18:07;;;;;;;13.05;6.10;;;11.60;67.90;;;;;;10476412;28;20029;-68
2022/03/12 10:23:08;;;;;;;9.75;6.07;;;11.60;69.00;;;;;;10475864;28;20040;-65
2022/03/12 10:28:10;;;;;;;16.13;6.75;;;11.70;69.90;;;;;;10481754;28;20087;-65
2022/03/12 10:33:24;;;;;;;11.75;6.97;;;11.80;70.80;;;;;;10479306;28;20544;-70
2022/03/12 10:38:25;;;;;;;10.98;6.38;;;11.90;72.00;;;;;;10484084;28;20314;-68
2022/03/12 10:43:28;;;;;;;16.63;7.65;;;12.10;71.90;;;;;;10483743;28;20410;-69
2022/03/12 10:48:37;;;;;;;20.65;6.18;;;12.20;72.40;;;;;;10476020;28;20052;-69
2022/03/12 10:53:39;;;;;;;23.67;6.97;;;12.30;73.70;;;;;;10476417;28;20025;-68
2022/03/12 10:58:40;;;;;;;19.38;6.32;;;12.40;73.00;;;;;;10468100;28;20036;-67
2022/03/12 11:03:41;;;;;;;12.10;6.03;;;12.50;73.60;;;;;;10474336;28;20028;-72
2022/03/12 11:08:43;;;;;;;11.27;5.72;;;12.60;74.00;;;;;;10470328;28;20036;-68
2022/03/12 11:13:50;;;;;;;10.32;6.70;;;12.60;74.30;;;;;;10483335;28;20028;-70
2022/03/12 11:18:51;;;;;;;11.77;6.43;;;12.70;74.70;;;;;;10480768;28;20548;-69
2022/03/12 11:23:51;;;;;;;9.43;5.75;;;12.90;74.10;;;;;;10489603;28;20040;-70
2022/03/12 11:28:56;;;;;;;13.07;6.18;;;12.90;74.10;;;;;;10481295;28;20021;-69
2022/03/12 11:33:58;;;;;;;12.77;5.85;;;13.00;74.50;;;;;;10472741;28;20170;-68
2022/03/12 11:38:59;;;;;;;13.00;5.55;;;13.00;74.40;;;;;;10486292;28;20078;-68
2022/03/12 11:44:06;;;;;;;9.90;4.80;;;12.90;74.70;;;;;;10489827;28;20458;-68
2022/03/12 11:49:07;;;;;;;8.90;4.97;;;13.00;75.20;;;;;;10480626;28;20107;-69
2022/03/12 11:54:08;;;;;;;9.20;5.10;;;12.90;75.00;;;;;;10484874;28;20020;-66
2022/03/12 11:59:08;;;;;;;8.02;5.18;;;13.00;74.90;;;;;;10484915;28;20434;-60
2022/03/12 12:04:09;;;;;;;10.90;5.55;;;13.10;75.10;;;;;;10489313;28;20032;-66
2022/03/12 12:09:10;;;;;;;9.25;4.70;;;13.10;75.00;;;;;;10477820;28;20028;-68
2022/03/12 12:14:10;;;;;;;11.23;4.65;;;13.20;75.30;;;;;;10479551;28;20036;-69
2022/03/12 12:19:11;;;;;;;9.65;4.97;;;13.20;75.20;;;;;;10484602;28;20040;-68
2022/03/12 12:24:36;;;;;;;9.48;5.20;;;13.20;75.20;;;;;;10474815;28;20050;-67
2022/03/12 12:29:44;;;;;;;8.70;4.65;;;13.20;76.90;;;;;;10486437;28;20511;-71
2022/03/12 12:35:09;;;;;;;8.40;4.55;;;13.30;76.20;;;;;;10477286;28;20025;-64
2022/03/12 12:40:13;;;;;;;7.47;4.40;;;13.40;76.50;;;;;;10483018;28;20075;-69
2022/03/12 12:45:16;;;;;;;7.47;4.55;;;13.60;75.60;;;;;;10474942;28;20048;-70
2022/03/12 12:50:23;;;;;;;8.75;4.10;;;13.80;74.40;;;;;;10476538;28;20525;-69
2022/03/12 12:55:25;;;;;;;7.57;4.20;;;13.80;75.10;;;;;;10462813;28;20016;-68
2022/03/12 13:00:28;;;;;;;8.40;4.05;;;13.70;74.50;;;;;;10474609;28;20037;-70
2022/03/12 13:05:56;;;;;;;12.50;4.63;;;13.70;75.00;;;;;;10474513;28;20047;-69
2022/03/12 13:11:31;;;;;;;7.43;4.47;;;13.80;75.70;;;;;;10476409;28;20043;-69
2022/03/12 13:17:02;;;;;;;10.82;5.03;;;13.90;75.40;;;;;;10481020;28;20499;-70
2022/03/12 13:22:11;;;;;;;7.57;4.05;;;14.10;75.10;;;;;;10469103;28;20507;-66
2022/03/12 13:27:26;;;;;;;9.68;4.30;;;14.00;75.40;;;;;;10452876;28;20075;-68
2022/03/12 13:32:27;;;;;;;7.22;3.85;;;14.00;74.80;;;;;;10471309;28;20393;-65
2022/03/12 13:37:28;;;;;;;7.95;3.88;;;14.00;74.30;;;;;;10482516;28;20025;-70
2022/03/12 13:42:29;;;;;;;7.68;3.63;;;13.90;74.40;;;;;;10466482;28;20057;-68
2022/03/12 13:47:31;;;;;;;8.63;3.95;;;13.90;74.70;;;;;;10456066;28;20458;-66
2022/03/12 13:52:31;;;;;;;7.07;3.65;;;13.90;74.80;;;;;;10450940;28;20037;-66
2022/03/12 13:57:35;;;;;;;7.47;3.38;;;13.90;74.30;;;;;;10453284;28;20021;-67
2022/03/12 14:02:48;;;;;;;10.52;3.80;;;13.90;74.00;;;;;;10454095;28;20041;-69
2022/03/12 14:07:50;;;;;;;6.15;3.08;;;13.90;74.30;;;;;;10446436;28;20398;-69
2022/03/12 14:13:04;;;;;;;8.27;3.42;;;14.00;74.30;;;;;;10453107;28;20079;-71
2022/03/12 14:18:08;;;;;;;7.97;3.53;;;14.00;77.80;;;;;;10450209;28;20101;-67
2022/03/12 14:23:09;;;;;;;10.55;5.00;;;14.10;75.30;;;;;;10450727;28;20377;-64
2022/03/12 14:28:09;;;;;;;6.22;4.20;;;14.20;75.20;;;;;;10450502;28;20053;-68
2022/03/12 14:33:11;;;;;;;7.88;4.28;;;14.20;75.10;;;;;;10451163;28;20111;-66
2022/03/12 14:38:13;;;;;;;8.35;4.43;;;14.20;75.00;;;;;;10451966;28;20518;-69
2022/03/12 14:43:15;;;;;;;12.63;4.25;;;14.20;75.20;;;;;;10449001;28;20406;-69
2022/03/12 14:48:17;;;;;;;9.15;4.50;;;14.20;74.90;;;;;;10452651;28;20103;-68
2022/03/12 14:53:18;;;;;;;6.70;4.38;;;14.20;74.70;;;;;;10448083;28;20029;-67
2022/03/12 14:58:19;;;;;;;6.60;3.75;;;14.20;74.40;;;;;;10450074;28;20025;-63
2022/03/12 15:03:20;;;;;;;7.85;3.50;;;14.30;74.20;;;;;;10451659;28;20029;-64
2022/03/12 15:08:28;;;;;;;6.10;3.60;;;14.40;74.00;;;;;;10467597;28;20067;-62
2022/03/12 15:13:32;;;;;;;7.68;4.18;;;14.50;73.40;;;;;;10454958;28;20087;-66
2022/03/12 15:18:32;;;;;;;6.22;3.42;;;14.50;73.10;;;;;;10464697;28;20453;-64
2022/03/12 15:23:34;;;;;;;7.18;3.25;;;14.60;72.80;;;;;;10474885;28;20044;-71
2022/03/12 15:28:35;;;;;;;6.70;3.22;;;14.60;72.90;;;;;;10487779;28;20035;-68
2022/03/12 15:33:38;;;;;;;6.70;3.17;;;14.60;72.30;;;;;;10478285;28;20059;-71
2022/03/12 15:38:43;;;;;;;4.80;2.78;;;14.50;72.20;;;;;;10490917;28;20037;-69
2022/03/12 15:43:44;;;;;;;6.10;3.20;;;14.40;72.00;;;;;;10485629;28;20549;-71
2022/03/12 15:48:45;;;;;;;5.57;2.60;;;14.40;72.00;;;;;;10496735;28;20114;-71
2022/03/12 15:53:46;;;;;;;5.00;2.60;;;14.30;72.70;;;;;;10484896;28;20652;-70
2022/03/12 15:58:48;;;;;;;5.32;3.15;;;14.20;72.00;;;;;;10483851;28;20086;-71
2022/03/12 16:03:50;;;;;;;6.28;2.55;;;14.20;72.20;;;;;;10473947;28;20043;-73
2022/03/12 16:08:52;;;;;;;5.50;2.70;;;14.10;72.20;;;;;;10477257;28;20033;-73
2022/03/12 16:13:52;;;;;;;4.57;2.50;;;14.00;72.20;;;;;;10480931;28;20107;-73
2022/03/12 16:18:54;;;;;;;5.35;2.63;;;13.90;72.40;;;;;;10483204;28;20486;-71
2022/03/12 16:23:55;;;;;;;7.50;2.67;;;13.90;72.80;;;;;;10471884;28;20149;-71
2022/03/12 16:28:56;;;;;;;5.63;2.30;;;13.90;72.90;;;;;;10471401;28;20027;-73
2022/03/12 16:33:56;;;;;;;6.15;2.47;;;13.90;73.00;;;;;;10471897;28;20478;-68
2022/03/12 16:38:57;;;;;;;6.47;2.95;;;13.80;73.10;;;;;;10477174;28;20032;-71
2022/03/12 16:43:58;;;;;;;4.28;2.20;;;13.80;73.20;;;;;;10473833;28;20526;-68
2022/03/12 16:49:01;;;;;;;5.47;2.60;;;13.80;73.50;;;;;;10456736;28;20035;-71
2022/03/12 16:54:03;;;;;;;5.15;2.67;;;13.80;73.60;;;;;;10481670;28;20029;-69
2022/03/12 16:59:04;;;;;;;4.68;2.55;;;13.70;73.70;;;;;;10478790;28;20074;-67
2022/03/12 17:04:05;;;;;;;7.47;2.90;;;13.70;75.10;;;;;;10474015;28;20462;-66
2022/03/12 17:09:06;;;;;;;4.25;2.40;;;13.70;74.60;;;;;;10473050;28;20024;-70
2022/03/12 17:14:07;;;;;;;5.55;3.28;;;13.70;74.80;;;;;;10487104;28;20036;-65
2022/03/12 17:19:10;;;;;;;3.95;2.40;;;13.60;74.90;;;;;;10475773;28;20471;-68
2022/03/12 17:24:20;;;;;;;4.30;2.55;;;13.60;75.00;;;;;;10479106;28;20044;-70
2022/03/12 17:29:23;;;;;;;4.20;2.28;;;13.50;75.10;;;;;;10474989;28;20107;-68
2022/03/12 17:34:24;;;;;;;4.45;2.28;;;13.50;75.20;;;;;;10473053;28;20617;-68
2022/03/12 17:39:25;;;;;;;5.72;2.33;;;13.40;75.30;;;;;;10482564;28;20135;-63
2022/03/12 17:44:27;;;;;;;5.90;2.60;;;13.40;75.50;;;;;;10485952;28;20051;-66
2022/03/12 17:49:29;;;;;;;7.32;2.58;;;13.30;75.50;;;;;;10459494;28;20081;-66
2022/03/12 17:54:30;;;;;;;4.40;2.35;;;13.30;75.70;;;;;;10478506;28;20113;-66
2022/03/12 17:59:30;;;;;;;6.30;2.75;;;13.20;75.70;;;;;;10479984;28;20036;-61
2022/03/12 18:04:31;;;;;;;4.40;2.42;;;13.20;75.90;;;;;;10478679;28;20021;-73
2022/03/12 18:09:33;;;;;;;4.30;2.22;;;13.20;76.00;;;;;;10466830;28;20129;-65
2022/03/12 18:14:37;;;;;;;6.85;3.10;;;13.10;76.00;;;;;;10479036;28;20021;-68
2022/03/12 18:19:37;;;;;;;4.57;2.42;;;13.10;76.20;;;;;;10472919;28;20040;-67
2022/03/12 18:24:38;;;;;;;4.78;2.70;;;13.10;76.30;;;;;;10475792;28;20029;-68
2022/03/12 18:29:40;;;;;;;4.55;2.80;;;13.10;76.40;;;;;;10472357;28;20024;-65
2022/03/12 18:34:46;;;;;;;5.47;3.25;;;13.00;76.50;;;;;;10475203;28;20016;-66
2022/03/12 18:39:53;;;;;;;6.47;3.50;;;13.00;76.60;;;;;;10475736;28;20450;-68
2022/03/12 18:44:54;;;;;;;9.23;4.65;;;12.90;76.70;;;;;;10475833;28;20465;-64
2022/03/12 18:49:54;;;;;;;9.35;4.13;;;12.90;76.80;;;;;;10488727;28;20060;-71
2022/03/12 18:54:56;;;;;;;10.30;4.45;;;12.90;77.00;;;;;;10491007;28;20025;-67
2022/03/12 18:59:56;;;;;;;10.90;4.72;;;12.80;77.10;;;;;;10480234;28;20546;-67
2022/03/12 19:04:57;;;;;;;11.90;5.10;;;12.80;77.30;;;;;;10484700;28;20024;-65
2022/03/12 19:09:58;;;;;;;13.65;6.32;;;12.80;77.40;;;;;;10477998;28;20560;-68
2022/03/12 19:14:59;;;;;;;11.35;6.28;;;12.80;77.50;;;;;;10480150;28;20021;-65
2022/03/12 19:20:01;;;;;;;10.38;6.32;;;12.80;77.70;;;;;;10484039;28;20029;-64
2022/03/12 19:25:04;;;;;;;13.40;6.53;;;12.80;77.70;;;;;;10491078;28;20031;-68
2022/03/12 19:30:07;;;;;;;12.18;6.78;;;12.70;77.70;;;;;;10475927;28;20022;-59
2022/03/12 19:35:08;;;;;;;13.60;7.05;;;12.70;77.70;;;;;;10454311;28;20075;-69
2022/03/12 19:40:10;;;;;;;11.35;7.35;;;12.70;77.70;;;;;;10481939;28;20494;-65
2022/03/12 19:45:13;;;;;;;12.07;7.25;;;12.70;77.70;;;;;;10486295;28;20037;-68
2022/03/12 19:50:16;;;;;;;15.32;7.90;;;12.60;78.30;;;;;;10476469;28;20457;-71
2022/03/12 19:55:18;;;;;;;16.70;8.55;;;12.60;77.70;;;;;;10471556;28;20033;-58
2022/03/12 20:00:21;;;;;;;13.65;7.30;;;12.60;78.80;;;;;;10477179;28;20037;-67
2022/03/12 20:05:22;;;;;;;14.93;8.07;;;12.60;78.50;;;;;;10483752;28;20053;-67
2022/03/12 20:10:24;;;;;;;14.68;8.48;;;12.60;78.50;;;;;;10476872;28;20542;-62
2022/03/12 20:15:29;;;;;;;14.25;7.72;;;12.50;78.60;;;;;;10489312;28;20052;-64
2022/03/12 20:20:30;;;;;;;14.82;8.55;;;12.50;78.60;;;;;;10477577;28;20394;-65
2022/03/12 20:25:31;;;;;;;18.95;9.13;;;12.50;79.30;;;;;;10485473;28;20104;-61
2022/03/12 20:30:32;;;;;;;18.42;9.25;;;12.50;78.70;;;;;;10484208;28;20036;-64
2022/03/12 20:35:34;;;;;;;16.98;8.98;;;12.40;78.60;;;;;;10488293;28;20048;-63
2022/03/12 20:40:35;;;;;;;20.42;9.55;;;12.40;79.10;;;;;;10488154;28;20510;-65
2022/03/12 20:45:35;;;;;;;19.48;9.98;;;12.40;79.10;;;;;;10466983;28;20048;-67
2022/03/12 20:50:36;;;;;;;16.45;9.20;;;12.40;79.20;;;;;;10482619;28;20043;-65
2022/03/12 20:55:37;;;;;;;18.98;9.90;;;12.40;79.20;;;;;;10487469;28;20490;-65
2022/03/12 21:00:38;;;;;;;17.90;9.95;;;12.30;79.10;;;;;;10474938;28;20051;-64
2022/03/12 21:05:40;;;;;;;21.05;9.05;;;12.30;79.20;;;;;;10450154;28;20029;-66
2022/03/12 21:10:41;;;;;;;19.15;9.02;;;12.30;79.20;;;;;;10481837;28;20100;-65
2022/03/12 21:15:41;;;;;;;17.40;9.50;;;12.30;79.30;;;;;;10487010;28;20025;-65
2022/03/12 21:20:42;;;;;;;18.13;9.18;;;12.20;79.40;;;;;;10479174;28;20041;-63
2022/03/12 21:25:44;;;;;;;18.17;8.73;;;12.20;79.40;;;;;;10486517;28;20123;-66
2022/03/12 21:30:45;;;;;;;20.25;9.38;;;12.20;79.50;;;;;;10478060;28;20498;-65
2022/03/12 21:35:46;;;;;;;15.55;9.15;;;12.20;79.60;;;;;;10472296;28;20390;-65
2022/03/12 21:40:47;;;;;;;18.40;9.70;;;12.20;79.60;;;;;;10474247;28;20142;-66
2022/03/12 21:45:49;;;;;;;18.35;9.10;;;12.10;79.60;;;;;;10481349;28;20076;-67
2022/03/12 21:50:50;;;;;;;15.40;8.50;;;12.10;79.70;;;;;;10475958;28;20265;-66
2022/03/12 21:55:53;;;;;;;15.70;8.77;;;12.10;79.80;;;;;;10477175;28;20425;-64
2022/03/12 22:00:54;;;;;;;14.77;7.93;;;12.10;79.90;;;;;;10473835;28;20127;-65
2022/03/12 22:05:55;;;;;;;14.48;8.35;;;12.00;79.80;;;;;;10485167;28;20074;-65
2022/03/12 22:10:57;;;;;;;15.43;8.85;;;12.00;80.00;;;;;;10484831;28;20047;-68
2022/03/12 22:15:58;;;;;;;14.70;8.85;;;12.00;80.00;;;;;;10482491;28;20686;-65
2022/03/12 22:20:59;;;;;;;16.02;8.55;;;12.00;80.00;;;;;;10461147;28;20518;-64
2022/03/12 22:26:00;;;;;;;19.02;8.85;;;12.00;79.90;;;;;;10471662;28;20036;-62
2022/03/12 22:31:01;;;;;;;17.75;9.55;;;11.90;79.90;;;;;;10480944;28;20107;-66
2022/03/12 22:36:03;;;;;;;14.52;8.60;;;11.90;79.90;;;;;;10481174;28;20506;-64
2022/03/12 22:41:03;;;;;;;14.95;8.68;;;11.90;79.90;;;;;;10484132;28;20068;-64
2022/03/12 22:46:06;;;;;;;16.48;9.15;;;11.90;80.00;;;;;;10479438;28;20509;-68
2022/03/12 22:51:08;;;;;;;15.07;9.32;;;11.90;80.00;;;;;;10454231;28;20597;-67
2022/03/12 22:56:10;;;;;;;17.80;8.93;;;11.80;80.00;;;;;;10482343;28;20032;-65
2022/03/12 23:01:29;;;;;;;16.58;9.38;;;11.80;80.00;;;;;;10473947;28;20537;-66
2022/03/12 23:11:49;;;;;;;15.82;9.10;;;11.80;80.00;;;;;;10482127;28;20039;-66
2022/03/12 23:16:52;;;;;;;16.30;8.73;;;11.70;79.90;;;;;;10470260;28;20028;-65
2022/03/12 23:21:54;;;;;;;16.83;8.98;;;11.70;79.80;;;;;;10472120;28;20032;-61
2022/03/12 23:26:55;;;;;;;15.88;9.57;;;11.70;79.80;;;;;;10485974;28;20036;-65
2022/03/12 23:32:01;;;;;;;17.60;9.73;;;11.70;79.70;;;;;;10481664;28;20021;-64
2022/03/12 23:37:03;;;;;;;19.35;9.20;;;11.60;79.70;;;;;;10491126;28;20502;-66
2022/03/12 23:42:04;;;;;;;17.85;9.20;;;11.60;79.60;;;;;;10490487;28;20056;-66
2022/03/12 23:47:05;;;;;;;17.48;9.45;;;11.70;80.00;;;;;;10479385;28;20383;-64
2022/03/12 23:52:21;;;;;;;18.55;9.85;;;11.60;79.80;;;;;;10479044;28;20041;-65
2022/03/12 23:57:25;;;;;;;17.63;8.70;;;11.60;79.80;;;;;;10473371;28;20035;-67
